createdAt,value
2018-07-28T00:00:26.818Z,9.70
2018-07-28T00:02:56.505Z,8.17
2018-07-28T00:05:26.113Z,8.47
2018-07-28T00:07:55.839Z,8.03
2018-07-28T00:10:25.667Z,8.60
2018-07-28T00:12:55.399Z,7.83
2018-07-28T00:15:25.105Z,8.80
2018-07-28T00:17:54.818Z,8.47
2018-07-28T00:20:24.601Z,8.10
2018-07-28T00:22:54.213Z,8.40
2018-07-28T00:25:24.033Z,9.30
2018-07-28T00:27:53.646Z,9.10
2018-07-28T00:30:23.410Z,7.93
2018-07-28T00:32:53.112Z,9.30
2018-07-28T00:35:22.883Z,8.50
2018-07-28T00:37:52.638Z,8.63
2018-07-28T00:40:22.338Z,9.00
2018-07-28T00:42:52.110Z,10.10
2018-07-28T00:45:21.766Z,8.30
2018-07-28T00:47:51.544Z,8.37
2018-07-28T00:50:21.298Z,8.30
2018-07-28T00:52:50.935Z,8.97
2018-07-28T00:55:20.714Z,8.07
2018-07-28T00:57:50.415Z,8.27
2018-07-28T01:00:20.172Z,9.13
2018-07-28T01:02:49.853Z,10.07
2018-07-28T01:05:19.620Z,7.83
2018-07-28T01:07:49.282Z,10.93
2018-07-28T01:10:19.088Z,8.23
2018-07-28T01:12:48.812Z,9.20
2018-07-28T01:15:18.567Z,9.63
2018-07-28T01:17:48.193Z,14.37
2018-07-28T01:20:17.983Z,10.03
2018-07-28T01:22:47.615Z,8.93
2018-07-28T01:25:17.333Z,10.03
2018-07-28T01:27:47.009Z,7.77
2018-07-28T01:30:21.931Z,8.40
2018-07-28T01:32:51.581Z,7.60
2018-07-28T01:35:21.282Z,12.87
2018-07-28T01:37:50.959Z,8.30
2018-07-28T01:40:20.646Z,7.63
2018-07-28T01:42:50.355Z,9.53
2018-07-28T01:45:20.064Z,8.90
2018-07-28T01:47:49.676Z,9.93
2018-07-28T01:50:19.406Z,9.73
2018-07-28T01:52:48.977Z,13.00
2018-07-28T01:55:18.691Z,8.23
2018-07-28T01:57:48.303Z,9.37
2018-07-28T02:00:17.921Z,10.80
2018-07-28T02:02:47.585Z,8.27
2018-07-28T02:05:17.309Z,9.07
2018-07-28T02:07:46.986Z,9.63
2018-07-28T02:10:16.617Z,10.73
2018-07-28T02:12:46.359Z,12.03
2018-07-28T02:15:15.997Z,14.60
2018-07-28T02:17:45.562Z,10.90
2018-07-28T02:20:15.368Z,11.43
2018-07-28T02:22:45.047Z,13.03
2018-07-28T02:25:14.731Z,13.40
2018-07-28T02:27:44.378Z,10.57
2018-07-28T02:30:14.055Z,10.83
2018-07-28T02:32:43.803Z,11.43
2018-07-28T02:35:13.522Z,10.47
2018-07-28T02:37:43.153Z,12.50
2018-07-28T02:40:12.880Z,11.93
2018-07-28T02:42:42.531Z,11.63
2018-07-28T02:45:12.243Z,8.57
2018-07-28T02:47:41.930Z,8.60
2018-07-28T02:50:11.530Z,11.30
2018-07-28T02:52:41.185Z,8.47
2018-07-28T02:55:11.178Z,10.47
2018-07-28T02:57:40.978Z,11.43
2018-07-28T03:00:10.836Z,12.37
2018-07-28T03:02:40.440Z,11.27
2018-07-28T03:05:10.106Z,10.30
2018-07-28T03:07:39.743Z,8.10
2018-07-28T03:10:09.855Z,8.87
2018-07-28T03:12:39.569Z,9.97
2018-07-28T03:15:32.265Z,9.37
2018-07-28T03:18:03.178Z,9.50
2018-07-28T03:20:32.965Z,9.43
2018-07-28T03:23:03.436Z,10.20
2018-07-28T03:25:33.024Z,11.30
2018-07-28T03:28:02.781Z,10.53
2018-07-28T03:30:32.487Z,9.40
2018-07-28T03:33:02.361Z,13.83
2018-07-28T03:35:31.954Z,11.33
2018-07-28T03:38:01.483Z,8.67
2018-07-28T03:40:31.103Z,10.17
2018-07-28T03:43:00.714Z,9.63
2018-07-28T03:45:30.382Z,12.00
2018-07-28T03:48:00.035Z,8.90
2018-07-28T03:50:29.724Z,8.17
2018-07-28T03:52:59.448Z,8.10
2018-07-28T03:55:29.048Z,7.90
2018-07-28T03:57:58.768Z,9.33
2018-07-28T04:00:28.496Z,7.10
2018-07-28T04:02:58.133Z,9.83
2018-07-28T04:05:27.845Z,6.57
2018-07-28T04:07:57.540Z,7.40
2018-07-28T04:10:27.215Z,8.73
2018-07-28T04:12:56.951Z,6.37
2018-07-28T04:15:26.703Z,8.33
2018-07-28T04:17:56.855Z,8.20
2018-07-28T04:20:27.507Z,9.90
2018-07-28T04:22:57.054Z,8.17
2018-07-28T04:25:26.681Z,8.07
2018-07-28T04:27:56.357Z,8.17
2018-07-28T04:30:26.087Z,9.60
2018-07-28T04:32:55.805Z,9.00
2018-07-28T04:35:25.415Z,10.20
2018-07-28T04:37:54.975Z,9.40
2018-07-28T04:40:24.676Z,7.97
2018-07-28T04:42:54.340Z,12.80
2018-07-28T04:45:23.934Z,10.43
2018-07-28T04:47:53.524Z,10.67
2018-07-28T04:50:23.182Z,11.30
2018-07-28T04:52:53.177Z,9.43
2018-07-28T04:55:22.809Z,10.50
2018-07-28T04:57:52.476Z,7.33
2018-07-28T05:00:22.111Z,7.67
2018-07-28T05:02:51.732Z,7.73
2018-07-28T05:05:21.335Z,9.80
2018-07-28T05:07:51.026Z,8.17
2018-07-28T05:10:20.693Z,9.23
2018-07-28T05:12:50.425Z,7.43
2018-07-28T05:15:20.245Z,11.73
2018-07-28T05:17:50.001Z,10.90
2018-07-28T05:20:19.713Z,9.30
2018-07-28T05:22:49.383Z,11.57
2018-07-28T05:25:19.217Z,11.13
2018-07-28T05:27:48.990Z,9.87
2018-07-28T05:30:18.615Z,12.40
2018-07-28T05:32:48.287Z,12.17
2018-07-28T05:35:17.982Z,9.80
2018-07-28T05:37:47.683Z,11.13
2018-07-28T05:40:17.288Z,8.30
2018-07-28T05:42:46.939Z,14.17
2018-07-28T05:45:16.651Z,10.03
2018-07-28T05:47:46.391Z,11.67
2018-07-28T05:50:16.283Z,12.20
2018-07-28T05:52:45.783Z,10.50
2018-07-28T05:55:15.530Z,9.43
2018-07-28T05:57:45.209Z,9.23
2018-07-28T06:00:14.894Z,10.97
2018-07-28T06:02:44.550Z,12.93
2018-07-28T06:05:14.342Z,14.00
2018-07-28T06:07:44.039Z,11.20
2018-07-28T06:10:13.755Z,12.43
2018-07-28T06:12:43.354Z,11.10
2018-07-28T06:15:13.002Z,10.77
2018-07-28T06:17:42.653Z,13.20
2018-07-28T06:20:12.440Z,11.73
2018-07-28T06:22:42.106Z,11.50
2018-07-28T06:25:11.735Z,10.83
2018-07-28T06:27:41.341Z,14.93
2018-07-28T06:30:11.629Z,12.57
2018-07-28T06:32:41.467Z,15.00
2018-07-28T06:35:11.126Z,13.33
2018-07-28T06:37:40.849Z,15.87
2018-07-28T06:40:10.937Z,15.93
2018-07-28T06:42:40.620Z,17.57
2018-07-28T06:45:10.461Z,16.50
2018-07-28T06:47:40.073Z,13.03
2018-07-28T06:50:09.869Z,18.73
2018-07-28T06:52:39.492Z,17.67
2018-07-28T06:55:09.221Z,18.53
2018-07-28T06:57:38.921Z,19.00
2018-07-28T07:00:10.249Z,16.67
2018-07-28T07:02:39.903Z,16.37
2018-07-28T07:05:09.926Z,19.57
2018-07-28T07:07:39.600Z,15.83
2018-07-28T07:10:09.191Z,21.23
2018-07-28T07:12:38.886Z,20.93
2018-07-28T07:15:08.628Z,19.63
2018-07-28T07:17:38.210Z,22.23
2018-07-28T07:20:08.409Z,20.97
2018-07-28T07:22:38.106Z,19.27
2018-07-28T07:25:08.107Z,17.83
2018-07-28T07:27:37.974Z,22.70
2018-07-28T07:30:07.909Z,19.00
2018-07-28T07:32:37.725Z,17.70
2018-07-28T07:35:07.360Z,19.63
2018-07-28T07:37:37.050Z,16.43
2018-07-28T07:40:07.273Z,16.87
2018-07-28T07:42:36.920Z,17.53
2018-07-28T07:45:07.034Z,20.03
2018-07-28T07:47:36.796Z,19.63
2018-07-28T07:50:06.644Z,21.90
2018-07-28T07:52:36.225Z,19.67
2018-07-28T07:55:05.960Z,22.97
2018-07-28T07:57:35.669Z,20.43
2018-07-28T08:00:05.288Z,17.87
2018-07-28T08:02:34.922Z,22.30
2018-07-28T08:05:05.023Z,19.53
2018-07-28T08:07:34.651Z,17.53
2018-07-28T08:10:05.101Z,23.40
2018-07-28T08:12:34.903Z,19.17
2018-07-28T08:15:05.006Z,18.47
2018-07-28T08:17:34.755Z,17.70
2018-07-28T08:20:04.965Z,18.23
2018-07-28T08:22:34.757Z,21.30
2018-07-28T08:25:04.950Z,21.63
2018-07-28T08:27:34.797Z,20.50
2018-07-28T08:30:05.422Z,18.70
2018-07-28T08:32:35.139Z,19.83
2018-07-28T08:35:05.974Z,20.03
2018-07-28T08:37:35.668Z,21.67
2018-07-28T08:40:06.100Z,17.27
2018-07-28T08:42:35.651Z,18.80
2018-07-28T08:45:06.423Z,20.30
2018-07-28T08:47:36.309Z,18.40
2018-07-28T08:50:06.175Z,18.70
2018-07-28T08:52:35.797Z,18.80
2018-07-28T08:55:05.755Z,23.70
2018-07-28T08:57:35.461Z,20.50
2018-07-28T09:00:05.376Z,22.97
2018-07-28T09:02:35.275Z,19.93
2018-07-28T09:05:05.418Z,20.70
2018-07-28T09:07:35.089Z,20.17
2018-07-28T09:10:04.924Z,20.93
2018-07-28T09:12:34.951Z,21.23
2018-07-28T09:15:05.679Z,25.10
2018-07-28T09:17:35.457Z,23.73
2018-07-28T09:20:05.225Z,19.30
2018-07-28T09:22:34.950Z,21.67
2018-07-28T09:25:04.699Z,19.97
2018-07-28T09:27:34.381Z,20.50
2018-07-28T09:30:04.087Z,18.50
2018-07-28T09:32:34.123Z,15.97
2018-07-28T09:35:03.729Z,16.87
2018-07-28T09:37:33.390Z,12.70
2018-07-28T09:40:03.037Z,13.87
2018-07-28T09:42:32.712Z,17.90
2018-07-28T09:45:02.347Z,17.17
2018-07-28T09:47:31.947Z,18.70
2018-07-28T09:50:01.593Z,17.97
2018-07-28T09:52:31.262Z,20.03
2018-07-28T09:55:00.924Z,17.90
2018-07-28T09:57:30.690Z,17.97
2018-07-28T10:00:00.408Z,21.10
2018-07-28T10:02:30.010Z,22.33
2018-07-28T10:04:59.569Z,21.47
2018-07-28T10:07:29.252Z,21.33
2018-07-28T10:09:58.898Z,21.17
2018-07-28T10:12:28.662Z,22.23
2018-07-28T10:14:58.405Z,21.77
2018-07-28T10:17:28.016Z,18.63
2018-07-28T10:19:57.593Z,21.90
2018-07-28T10:22:27.207Z,20.87
2018-07-28T10:24:56.707Z,18.80
2018-07-28T10:27:26.301Z,20.40
2018-07-28T10:29:55.955Z,20.30
2018-07-28T10:32:25.630Z,19.87
2018-07-28T10:34:55.283Z,19.47
2018-07-28T10:37:25.061Z,19.80
2018-07-28T10:39:54.756Z,19.47
2018-07-28T10:42:24.407Z,18.60
2018-07-28T10:44:54.004Z,19.60
2018-07-28T10:47:24.242Z,19.60
2018-07-28T10:49:53.914Z,19.33
2018-07-28T10:52:23.574Z,19.03
2018-07-28T10:54:53.356Z,18.73
2018-07-28T10:57:24.473Z,19.03
2018-07-28T10:59:55.222Z,18.90
2018-07-28T11:02:25.466Z,18.73
2018-07-28T11:04:56.022Z,19.87
2018-07-28T11:07:25.600Z,17.90
2018-07-28T11:09:55.320Z,16.00
2018-07-28T11:12:24.892Z,16.57
2018-07-28T11:14:54.568Z,16.40
2018-07-28T11:17:24.696Z,16.70
2018-07-28T11:19:54.412Z,17.10
2018-07-28T11:22:24.154Z,15.57
2018-07-28T11:24:53.835Z,15.10
2018-07-28T11:27:23.394Z,14.20
2018-07-28T11:29:53.148Z,13.80
2018-07-28T11:32:39.530Z,13.13
2018-07-28T11:35:25.881Z,11.83
2018-07-28T11:38:36.128Z,10.73
2018-07-28T11:41:22.546Z,11.43
2018-07-28T11:45:10.166Z,10.90
2018-07-28T11:47:39.920Z,9.83
2018-07-28T11:50:09.577Z,8.93
2018-07-28T11:52:39.343Z,8.10
2018-07-28T11:55:08.998Z,8.87
2018-07-28T11:57:38.700Z,8.17
2018-07-28T12:00:10.367Z,7.97
2018-07-28T12:02:40.532Z,7.90
2018-07-28T12:05:10.908Z,8.30
2018-07-28T12:07:41.072Z,7.90
2018-07-28T12:10:11.218Z,7.50
2018-07-28T12:12:41.536Z,8.07
2018-07-28T12:15:11.844Z,7.70
2018-07-28T12:17:41.866Z,8.27
2018-07-28T12:20:12.320Z,9.10
2018-07-28T12:22:42.149Z,9.77
2018-07-28T12:25:11.959Z,9.33
2018-07-28T12:27:41.609Z,8.93
2018-07-28T12:30:12.161Z,9.70
2018-07-28T12:32:42.214Z,9.10
2018-07-28T12:35:11.889Z,8.90
2018-07-28T12:37:41.637Z,8.57
2018-07-28T12:40:11.349Z,8.67
2018-07-28T12:42:41.118Z,8.37
2018-07-28T12:45:10.924Z,8.53
2018-07-28T12:47:40.541Z,7.70
2018-07-28T12:50:10.350Z,8.70
2018-07-28T12:52:40.328Z,7.63
2018-07-28T12:55:09.705Z,7.10
2018-07-28T12:57:39.344Z,6.93
2018-07-28T13:00:08.981Z,7.03
2018-07-28T13:02:38.557Z,7.77
2018-07-28T13:05:09.177Z,6.47
2018-07-28T13:07:38.844Z,5.87
2018-07-28T13:10:09.283Z,5.40
2018-07-28T13:12:39.035Z,5.47
2018-07-28T13:15:08.811Z,5.47
2018-07-28T13:17:38.458Z,4.80
2018-07-28T13:20:08.353Z,5.33
2018-07-28T13:22:38.086Z,5.40
2018-07-28T13:25:07.846Z,5.07
2018-07-28T13:27:37.559Z,5.43
2018-07-28T13:30:07.759Z,5.83
2018-07-28T13:32:38.286Z,6.10
2018-07-28T13:35:08.034Z,5.80
2018-07-28T13:37:37.642Z,6.10
2018-07-28T13:40:07.353Z,6.73
2018-07-28T13:42:37.035Z,6.20
2018-07-28T13:45:07.170Z,6.37
2018-07-28T13:47:36.893Z,5.53
2018-07-28T13:50:06.783Z,6.03
2018-07-28T13:52:36.434Z,6.50
2018-07-28T13:55:06.250Z,5.23
2018-07-28T13:57:36.058Z,4.90
2018-07-28T14:00:07.178Z,5.10
2018-07-28T14:02:36.972Z,5.00
2018-07-28T14:05:06.658Z,4.83
2018-07-28T14:07:36.261Z,5.23
2018-07-28T14:10:06.874Z,4.20
2018-07-28T14:12:36.748Z,4.07
2018-07-28T14:15:07.644Z,4.93
2018-07-28T14:17:37.285Z,4.07
2018-07-28T14:20:07.254Z,4.00
2018-07-28T14:22:37.387Z,3.90
2018-07-28T14:25:07.798Z,4.20
2018-07-28T14:27:37.522Z,3.83
2018-07-28T14:30:07.350Z,4.13
2018-07-28T14:32:39.050Z,3.50
2018-07-28T14:35:08.405Z,3.80
2018-07-28T14:37:38.072Z,5.43
2018-07-28T14:40:07.728Z,3.60
2018-07-28T14:42:37.462Z,3.90
2018-07-28T14:45:09.309Z,3.90
2018-07-28T14:47:38.894Z,4.47
2018-07-28T14:50:08.905Z,3.80
2018-07-28T14:52:38.560Z,5.83
2018-07-28T14:55:08.437Z,3.37
2018-07-28T14:57:38.078Z,3.40
2018-07-28T15:00:08.454Z,4.97
2018-07-28T15:02:38.195Z,4.77
2018-07-28T15:05:08.211Z,6.20
2018-07-28T15:07:38.021Z,5.10
2018-07-28T15:10:07.658Z,5.13
2018-07-28T15:12:37.316Z,3.20
2018-07-28T15:15:07.265Z,3.10
2018-07-28T15:17:36.888Z,8.47
2018-07-28T15:20:06.577Z,8.70
2018-07-28T15:22:36.266Z,7.87
2018-07-28T15:25:05.937Z,9.67
2018-07-28T15:27:35.635Z,12.07
2018-07-28T15:30:05.749Z,9.60
2018-07-28T15:32:35.313Z,8.30
2018-07-28T15:35:04.657Z,9.87
2018-07-28T15:37:34.330Z,6.97
2018-07-28T15:40:04.103Z,5.80
2018-07-28T15:42:33.742Z,3.20
2018-07-28T15:45:03.426Z,8.17
2018-07-28T15:47:33.087Z,5.47
2018-07-28T15:50:02.798Z,13.17
2018-07-28T15:52:32.403Z,8.03
2018-07-28T15:55:02.144Z,3.20
2018-07-28T15:57:31.870Z,5.07
2018-07-28T16:00:01.583Z,4.23
2018-07-28T16:02:31.309Z,6.57
2018-07-28T16:05:00.961Z,4.27
2018-07-28T16:07:30.641Z,4.93
2018-07-28T16:10:00.380Z,8.50
2018-07-28T16:12:29.971Z,2.90
2018-07-28T16:14:59.733Z,5.27
2018-07-28T16:17:29.439Z,4.23
2018-07-28T16:19:59.157Z,6.63
2018-07-28T16:22:28.755Z,3.97
2018-07-28T16:24:58.651Z,4.43
2018-07-28T16:27:28.006Z,7.47
2018-07-28T16:29:57.684Z,4.97
2018-07-28T16:32:28.341Z,4.93
2018-07-28T16:34:57.970Z,4.47
2018-07-28T16:37:27.662Z,2.87
2018-07-28T16:39:57.615Z,6.37
2018-07-28T16:42:27.347Z,3.87
2018-07-28T16:44:57.239Z,5.27
2018-07-28T16:47:26.946Z,6.23
2018-07-28T16:49:56.663Z,5.50
2018-07-28T16:52:26.389Z,5.03
2018-07-28T16:54:56.056Z,5.17
2018-07-28T16:57:25.823Z,4.53
2018-07-28T16:59:55.593Z,3.97
2018-07-28T17:02:25.249Z,7.47
2018-07-28T17:04:55.050Z,6.67
2018-07-28T17:07:24.712Z,6.27
2018-07-28T17:09:54.930Z,5.03
2018-07-28T17:12:24.682Z,4.50
2018-07-28T17:14:54.324Z,7.37
2018-07-28T17:17:23.982Z,4.90
2018-07-28T17:19:53.732Z,8.73
2018-07-28T17:22:23.610Z,7.70
2018-07-28T17:24:53.316Z,4.43
2018-07-28T17:27:22.966Z,5.87
2018-07-28T17:29:52.633Z,5.60
2018-07-28T17:32:22.328Z,4.63
2018-07-28T17:34:52.038Z,8.83
2018-07-28T17:37:21.853Z,4.63
2018-07-28T17:39:51.495Z,4.70
2018-07-28T17:42:21.143Z,4.97
2018-07-28T17:44:50.799Z,5.77
2018-07-28T17:47:20.525Z,7.30
2018-07-28T17:49:50.297Z,4.67
2018-07-28T17:52:19.834Z,5.47
2018-07-28T17:54:49.676Z,7.20
2018-07-28T17:57:19.500Z,5.57
2018-07-28T17:59:49.213Z,8.30
2018-07-28T18:02:18.776Z,5.50
2018-07-28T18:04:48.528Z,6.07
2018-07-28T18:07:18.106Z,6.40
2018-07-28T18:09:47.834Z,8.33
2018-07-28T18:12:17.548Z,5.67
2018-07-28T18:14:47.144Z,6.30
2018-07-28T18:17:16.818Z,4.57
2018-07-28T18:19:46.546Z,4.50
2018-07-28T18:22:16.176Z,7.47
2018-07-28T18:24:45.819Z,6.00
2018-07-28T18:27:15.394Z,3.73
2018-07-28T18:29:44.996Z,3.67
2018-07-28T18:32:14.680Z,4.57
2018-07-28T18:34:44.430Z,6.00
2018-07-28T18:37:14.056Z,4.63
2018-07-28T18:39:43.707Z,6.73
2018-07-28T18:42:13.618Z,6.13
2018-07-28T18:44:43.322Z,7.67
2018-07-28T18:47:13.029Z,5.03
2018-07-28T18:49:42.745Z,5.13
2018-07-28T18:52:12.514Z,5.07
2018-07-28T18:54:42.125Z,3.57
2018-07-28T18:57:11.737Z,4.93
2018-07-28T18:59:41.330Z,7.70
2018-07-28T19:02:10.595Z,5.87
2018-07-28T19:04:40.320Z,4.93
2018-07-28T19:07:09.931Z,3.67
2018-07-28T19:09:44.859Z,4.17
2018-07-28T19:12:14.827Z,7.03
2018-07-28T19:14:44.900Z,6.97
2018-07-28T19:17:14.982Z,6.30
2018-07-28T19:19:45.094Z,8.77
2018-07-28T19:22:20.324Z,7.53
2018-07-28T19:24:50.515Z,6.57
2018-07-28T19:27:21.228Z,5.03
2018-07-28T19:29:51.494Z,7.97
2018-07-28T19:32:21.910Z,4.90
2018-07-28T19:34:52.336Z,7.40
2018-07-28T19:37:24.389Z,8.67
2018-07-28T19:39:54.754Z,5.67
2018-07-28T19:42:29.741Z,5.27
2018-07-28T19:45:00.007Z,4.87
2018-07-28T19:47:30.380Z,5.93
2018-07-28T19:50:00.406Z,4.63
2018-07-28T19:52:30.607Z,4.17
2018-07-28T19:55:00.903Z,5.30
2018-07-28T19:57:30.506Z,5.40
2018-07-28T20:00:00.298Z,5.33
2018-07-28T20:02:29.933Z,5.60
2018-07-28T20:04:59.505Z,4.70
2018-07-28T20:07:29.074Z,4.10
2018-07-28T20:09:58.670Z,5.60
2018-07-28T20:12:28.373Z,5.87
2018-07-28T20:14:58.017Z,3.47
2018-07-28T20:17:27.845Z,5.50
2018-07-28T20:19:57.652Z,4.67
2018-07-28T20:22:27.927Z,5.17
2018-07-28T20:24:58.139Z,4.70
2018-07-28T20:27:28.202Z,4.77
2018-07-28T20:29:58.659Z,4.70
2018-07-28T20:32:28.693Z,5.13
2018-07-28T20:34:59.074Z,3.80
2018-07-28T20:37:29.424Z,4.60
2018-07-28T20:39:59.799Z,3.53
2018-07-28T20:42:30.137Z,7.90
2018-07-28T20:45:00.462Z,5.23
2018-07-28T20:47:30.817Z,7.40
2018-07-28T20:50:00.953Z,4.77
2018-07-28T20:52:31.053Z,3.90
2018-07-28T20:55:01.558Z,4.53
2018-07-28T20:57:31.818Z,5.73
2018-07-28T21:00:02.213Z,3.87
2018-07-28T21:02:32.315Z,4.40
2018-07-28T21:05:02.584Z,3.77
2018-07-28T21:07:32.223Z,4.27
2018-07-28T21:10:01.993Z,3.70
2018-07-28T21:12:31.477Z,2.93
2018-07-28T21:15:01.305Z,6.03
2018-07-28T21:17:30.926Z,5.50
2018-07-28T21:20:00.659Z,3.40
2018-07-28T21:22:30.396Z,6.07
2018-07-28T21:25:00.159Z,4.77
2018-07-28T21:27:29.962Z,5.63
2018-07-28T21:29:59.633Z,4.57
2018-07-28T21:32:29.359Z,6.03
2018-07-28T21:34:59.066Z,3.90
2018-07-28T21:37:28.642Z,5.30
2018-07-28T21:39:58.226Z,4.60
2018-07-28T21:42:27.892Z,5.70
2018-07-28T21:44:57.520Z,4.73
2018-07-28T21:47:27.234Z,6.80
2018-07-28T21:49:56.862Z,7.13
2018-07-28T21:52:26.402Z,5.90
2018-07-28T21:54:56.592Z,5.50
2018-07-28T21:57:26.696Z,5.17
2018-07-28T21:59:56.665Z,6.90
2018-07-28T22:02:26.722Z,6.70
2018-07-28T22:04:56.664Z,3.17
2018-07-28T22:07:26.701Z,4.83
2018-07-28T22:09:56.667Z,4.33
2018-07-28T22:12:26.664Z,3.50
2018-07-28T22:14:56.686Z,3.13
2018-07-28T22:17:26.754Z,3.87
2018-07-28T22:19:56.620Z,3.77
2018-07-28T22:22:26.504Z,4.73
2018-07-28T22:24:56.713Z,4.30
2018-07-28T22:27:26.569Z,5.50
2018-07-28T22:29:56.506Z,4.20
2018-07-28T22:32:26.124Z,4.07
2018-07-28T22:34:55.752Z,4.93
2018-07-28T22:37:25.382Z,5.37
2018-07-28T22:39:55.234Z,3.63
2018-07-28T22:42:56.193Z,5.23
2018-07-28T22:45:26.223Z,6.20
2018-07-28T22:47:56.255Z,5.63
2018-07-28T22:50:26.349Z,5.13
2018-07-28T22:52:56.129Z,4.30
2018-07-28T22:55:26.087Z,4.97
2018-07-28T22:57:56.050Z,7.03
2018-07-28T23:00:26.039Z,3.90
2018-07-28T23:02:56.063Z,3.03
2018-07-28T23:05:26.021Z,3.73
2018-07-28T23:07:55.959Z,3.20
2018-07-28T23:10:25.755Z,4.50
2018-07-28T23:12:55.811Z,4.97
2018-07-28T23:15:25.816Z,4.50
2018-07-28T23:17:55.903Z,3.80
2018-07-28T23:20:25.893Z,4.67
2018-07-28T23:22:55.831Z,3.33
2018-07-28T23:25:26.139Z,4.70
2018-07-28T23:27:56.184Z,3.90
2018-07-28T23:30:26.271Z,5.20
2018-07-28T23:32:56.437Z,3.20
2018-07-28T23:35:26.816Z,5.10
2018-07-28T23:37:56.449Z,3.63
2018-07-28T23:40:26.288Z,3.53
2018-07-28T23:42:55.942Z,4.17
2018-07-28T23:45:25.606Z,4.57
2018-07-28T23:47:55.458Z,4.20
2018-07-28T23:50:25.218Z,3.83
2018-07-28T23:52:55.022Z,3.63
2018-07-28T23:55:24.650Z,4.00
2018-07-28T23:57:54.378Z,2.27
